Time;durP1;ratioP1;P1;durP2;ratioP2;P2;SDS_P1;SDS_P2;PMS_P1;PMS_P2;Temp;Humidity;BMP_temperature;BMP_pressure;BME280_temperature;BME280_humidity;BME280_pressure;Samples;Min_cycle;Max_cycle;Signal;HPM_P1;HPM_P2
2023/08/09 00:01:55;;;;;;;4.90;1.10;;;;;;;9.67;100.00;99164.25;103017;1285;60915;-61
2023/08/09 00:04:41;;;;;;;4.60;1.20;;;;;;;9.65;100.00;99158.21;102944;1286;72649;-63
2023/08/09 00:07:28;;;;;;;4.90;1.50;;;;;;;9.65;100.00;99164.44;103194;1286;68279;-62
2023/08/09 00:10:15;;;;;;;5.50;1.30;;;;;;;9.64;100.00;99167.38;103116;1286;71732;-61
2023/08/09 00:13:03;;;;;;;5.40;1.40;;;;;;;9.63;100.00;99172.41;103275;1290;61033;-61
2023/08/09 00:15:50;;;;;;;4.50;1.20;;;;;;;9.62;100.00;99173.19;102922;1291;62012;-61
2023/08/09 00:18:37;;;;;;;5.50;1.20;;;;;;;9.62;100.00;99178.36;102841;1291;73177;-64
2023/08/09 00:21:23;;;;;;;4.90;1.50;;;;;;;9.60;100.00;99179.77;103346;1292;68265;-61
2023/08/09 00:24:10;;;;;;;4.70;1.40;;;;;;;9.59;100.00;99185.64;103149;1291;73016;-61
2023/08/09 00:26:57;;;;;;;4.80;1.30;;;;;;;9.59;100.00;99188.87;103172;1291;59845;-61
2023/08/09 00:29:43;;;;;;;5.20;1.40;;;;;;;9.59;100.00;99190.35;103085;1286;61891;-61
2023/08/09 00:32:30;;;;;;;5.30;1.40;;;;;;;9.58;100.00;99195.68;103033;1286;73962;-61
2023/08/09 00:35:17;;;;;;;5.00;1.60;;;;;;;9.58;100.00;99200.85;102795;1291;67169;-60
2023/08/09 00:38:03;;;;;;;5.80;1.40;;;;;;;9.58;100.00;99205.45;103046;1286;73086;-60
2023/08/09 00:40:50;;;;;;;6.80;1.50;;;;;;;9.58;100.00;99207.38;103173;1286;60090;-61
2023/08/09 00:43:37;;;;;;;4.90;1.20;;;;;;;9.57;100.00;99206.60;103104;1286;60984;-63
2023/08/09 00:46:24;;;;;;;5.60;1.30;;;;;;;9.57;100.00;99204.96;103063;1286;72672;-62
2023/08/09 00:49:11;;;;;;;5.80;1.50;;;;;;;9.57;100.00;99209.42;103076;1291;67525;-61
2023/08/09 00:51:58;;;;;;;4.90;1.40;;;;;;;9.56;100.00;99209.30;103017;1291;73376;-61
2023/08/09 00:54:46;;;;;;;5.80;1.90;;;;;;;9.56;100.00;99206.69;103177;1291;60032;-63
2023/08/09 00:57:34;;;;;;;4.70;1.30;;;;;;;9.57;100.00;99205.92;103276;1286;60106;-61
2023/08/09 01:00:20;;;;;;;5.10;1.50;;;;;;;9.57;100.00;99204.45;103079;1286;73186;-61
2023/08/09 01:03:07;;;;;;;5.60;1.50;;;;;;;9.58;100.00;99199.64;102816;1286;68597;-61
2023/08/09 01:06:24;;;;;;;6.20;1.50;;;;;;;9.58;100.00;99194.26;103093;1291;72039;-61
2023/08/09 01:09:24;;;;;;;5.50;1.50;;;;;;;9.59;100.00;99195.74;102897;1287;60189;-62
2023/08/09 01:12:18;;;;;;;5.70;1.60;;;;;;;9.60;100.00;99201.95;103198;1290;62799;-63
2023/08/09 01:15:06;;;;;;;6.70;1.60;;;;;;;9.59;100.00;99196.02;102981;1289;72777;-62
2023/08/09 01:17:55;;;;;;;5.50;1.70;;;;;;;9.58;100.00;99189.71;103148;1290;69418;-61
2023/08/09 01:20:43;;;;;;;5.80;2.00;;;;;;;9.55;100.00;99192.90;103115;1286;72027;-62
2023/08/09 01:23:38;;;;;;;5.60;1.80;;;;;;;9.54;100.00;99189.65;102850;1292;59455;-62
2023/08/09 01:26:24;;;;;;;5.50;1.80;;;;;;;9.51;100.00;99188.11;103008;1291;59761;-61
2023/08/09 01:29:11;;;;;;;5.80;1.70;;;;;;;9.52;100.00;99190.57;103213;1290;72887;-62
2023/08/09 01:31:57;;;;;;;6.50;1.80;;;;;;;9.50;100.00;99188.27;103207;1289;67980;-63
2023/08/09 01:34:44;;;;;;;5.40;1.80;;;;;;;9.47;100.00;99191.84;103235;1291;71811;-64
2023/08/09 01:37:45;;;;;;;6.40;1.90;;;;;;;9.46;100.00;99198.02;103208;1291;59293;-61
2023/08/09 01:40:33;;;;;;;7.70;2.00;;;;;;;9.44;100.00;99204.83;103233;1286;60710;-62
2023/08/09 01:43:21;;;;;;;4.90;1.40;;;;;;;9.44;100.00;99199.54;102903;1286;71958;-62
2023/08/09 01:46:09;;;;;;;6.80;2.10;;;;;;;9.44;100.00;99197.65;102927;1292;68553;-64
2023/08/09 01:49:13;;;;;;;5.50;2.10;;;;;;;9.41;100.00;99193.63;103150;1292;73406;-62
2023/08/09 01:52:00;;;;;;;6.50;1.90;;;;;;;9.39;100.00;99197.31;103115;1291;59400;-61
2023/08/09 01:54:48;;;;;;;7.20;2.10;;;;;;;9.38;100.00;99196.38;103034;1291;60981;-62
2023/08/09 01:57:34;;;;;;;6.10;2.10;;;;;;;9.36;100.00;99201.27;102999;1290;73944;-62
2023/08/09 02:00:25;;;;;;;7.30;2.10;;;;;;;9.34;100.00;99202.73;102977;1286;67713;-61
2023/08/09 02:03:11;;;;;;;6.30;2.10;;;;;;;9.32;100.00;99194.23;103061;1287;74482;-61
2023/08/09 02:05:58;;;;;;;5.80;1.90;;;;;;;9.30;100.00;99191.56;103232;1292;59465;-61
2023/08/09 02:08:45;;;;;;;7.00;2.20;;;;;;;9.29;100.00;99191.61;103092;1285;61291;-61
2023/08/09 02:11:32;;;;;;;6.40;2.20;;;;;;;9.28;100.00;99194.08;103117;1286;71569;-61
2023/08/09 02:14:19;;;;;;;6.00;2.20;;;;;;;9.26;100.00;99195.95;103077;1286;67324;-61
2023/08/09 02:17:08;;;;;;;6.50;2.10;;;;;;;9.25;100.00;99202.96;102949;1286;73234;-62
2023/08/09 02:19:54;;;;;;;6.50;2.30;;;;;;;9.24;100.00;99206.80;102902;1292;60222;-61
2023/08/09 02:22:43;;;;;;;5.80;2.00;;;;;;;9.23;100.00;99205.98;103204;1291;60021;-61
2023/08/09 02:25:30;;;;;;;7.20;2.50;;;;;;;9.23;100.00;99207.77;102662;1286;72883;-62
2023/08/09 02:28:16;;;;;;;5.90;2.00;;;;;;;9.22;100.00;99206.23;102835;1286;68453;-62
2023/08/09 02:31:03;;;;;;;7.80;2.40;;;;;;;9.22;100.00;99208.86;102734;1291;70899;-62
2023/08/09 02:33:50;;;;;;;7.40;2.40;;;;;;;9.22;100.00;99204.30;102942;1294;60837;-62
2023/08/09 02:36:37;;;;;;;7.30;2.50;;;;;;;9.24;100.00;99210.15;103243;1291;62005;-61
2023/08/09 02:39:24;;;;;;;6.10;2.20;;;;;;;9.24;100.00;99211.73;103285;1286;73744;-63
2023/08/09 02:42:11;;;;;;;6.50;2.40;;;;;;;9.25;100.00;99210.41;103124;1286;68516;-61
2023/08/09 02:44:57;;;;;;;5.90;2.50;;;;;;;9.25;100.00;99209.11;103130;1286;73152;-61
2023/08/09 02:47:45;;;;;;;7.80;2.70;;;;;;;9.27;100.00;99209.17;102865;1286;59455;-61
2023/08/09 02:50:32;;;;;;;7.40;2.40;;;;;;;9.27;100.00;99217.48;102842;1286;60746;-60
2023/08/09 02:53:19;;;;;;;7.20;2.80;;;;;;;9.28;100.00;99220.27;103193;1287;73677;-62
2023/08/09 02:56:05;;;;;;;5.90;2.30;;;;;;;9.27;100.00;99218.19;102981;1290;69466;-61
2023/08/09 02:58:53;;;;;;;7.50;2.70;;;;;;;9.28;100.00;99217.77;103122;1292;73215;-65
2023/08/09 03:01:40;;;;;;;9.00;2.70;;;;;;;9.28;100.00;99219.03;103169;1293;60431;-62
2023/08/09 03:04:27;;;;;;;9.00;3.00;;;;;;;9.28;100.00;99222.33;103153;1286;61994;-61
2023/08/09 03:07:14;;;;;;;7.50;2.40;;;;;;;9.29;100.00;99220.65;102834;1291;72805;-61
2023/08/09 03:10:03;;;;;;;7.00;2.40;;;;;;;9.30;100.00;99224.26;103027;1286;68572;-61
2023/08/09 03:12:49;;;;;;;6.30;2.40;;;;;;;9.31;100.00;99229.33;103010;1286;74795;-61
2023/08/09 03:15:36;;;;;;;10.40;2.90;;;;;;;9.33;100.00;99236.41;103060;1291;60512;-62
2023/08/09 03:18:22;;;;;;;6.40;2.60;;;;;;;9.35;100.00;99239.11;102952;1292;59702;-62
2023/08/09 03:21:10;;;;;;;9.00;3.50;;;;;;;9.36;100.00;99235.98;102807;1291;73649;-62
2023/08/09 03:23:57;;;;;;;6.30;2.60;;;;;;;9.37;100.00;99238.71;102887;1291;68571;-60
2023/08/09 03:26:43;;;;;;;6.50;2.60;;;;;;;9.39;100.00;99240.67;102961;1291;72071;-62
2023/08/09 03:29:32;;;;;;;7.70;2.50;;;;;;;9.42;100.00;99237.60;103094;1291;59209;-62
2023/08/09 03:32:20;;;;;;;9.00;3.10;;;;;;;9.44;100.00;99231.23;103065;1291;60989;-63
2023/08/09 03:35:08;;;;;;;9.20;2.60;;;;;;;9.46;100.00;99236.56;103094;1287;71391;-63
2023/08/09 03:37:55;;;;;;;6.90;2.90;;;;;;;9.47;100.00;99237.91;103204;1291;68340;-64
2023/08/09 03:40:41;;;;;;;6.90;2.80;;;;;;;9.50;100.00;99245.55;103029;1291;74241;-62
2023/08/09 03:43:28;;;;;;;7.30;2.80;;;;;;;9.54;100.00;99250.77;102982;1291;60585;-62
2023/08/09 03:46:15;;;;;;;9.00;3.30;;;;;;;9.56;100.00;99249.19;103018;1292;60922;-62
2023/08/09 03:49:02;;;;;;;7.50;3.10;;;;;;;9.58;100.00;99256.27;103009;1291;71366;-62
2023/08/09 03:51:49;;;;;;;7.20;2.70;;;;;;;9.62;100.00;99251.17;102966;1286;68675;-63
2023/08/09 03:54:36;;;;;;;8.70;2.60;;;;;;;9.65;100.00;99254.27;103134;1292;74225;-61
2023/08/09 03:57:22;;;;;;;7.90;2.10;;;;;;;9.68;100.00;99249.85;103707;1289;60025;-64
2023/08/09 04:00:17;;;;;;;9.40;2.80;;;;;;;9.73;100.00;99251.11;103143;1299;59914;-61
2023/08/09 04:03:06;;;;;;;8.20;2.90;;;;;;;9.76;100.00;99251.29;102941;1286;73970;-63
2023/08/09 04:05:55;;;;;;;8.40;2.50;;;;;;;9.80;100.00;99249.05;103234;1292;69458;-63
2023/08/09 04:08:42;;;;;;;9.60;2.60;;;;;;;9.84;100.00;99256.13;103186;1291;74466;-62
2023/08/09 04:11:29;;;;;;;6.30;2.30;;;;;;;9.88;100.00;99259.14;103112;1292;60177;-62
2023/08/09 04:14:17;;;;;;;8.10;2.50;;;;;;;9.92;100.00;99259.16;102922;1289;62043;-61
2023/08/09 04:17:06;;;;;;;8.00;2.50;;;;;;;9.96;100.00;99260.98;103083;1286;72773;-62
2023/08/09 04:19:53;;;;;;;7.50;2.40;;;;;;;10.00;100.00;99256.48;103332;1286;68569;-63
2023/08/09 04:22:39;;;;;;;9.20;2.40;;;;;;;10.06;100.00;99257.43;103269;1291;71957;-63
2023/08/09 04:25:26;;;;;;;9.00;2.40;;;;;;;10.10;100.00;99257.62;103237;1299;59246;-60
2023/08/09 04:28:13;;;;;;;7.80;2.90;;;;;;;10.15;100.00;99260.36;102995;1289;59663;-61
2023/08/09 04:31:03;;;;;;;5.90;2.60;;;;;;;10.19;100.00;99261.34;102944;1291;72856;-62
2023/08/09 04:33:51;;;;;;;8.60;2.80;;;;;;;10.24;100.00;99260.41;102928;1289;68446;-61
2023/08/09 04:36:38;;;;;;;8.30;2.70;;;;;;;10.29;100.00;99260.20;102696;1299;74024;-60
2023/08/09 04:39:25;;;;;;;7.50;2.60;;;;;;;10.34;100.00;99264.18;102908;1290;59537;-61
2023/08/09 04:42:12;;;;;;;7.70;2.60;;;;;;;10.40;100.00;99269.34;103096;1292;60982;-61
2023/08/09 04:44:58;;;;;;;9.00;2.60;;;;;;;10.45;100.00;99265.14;102900;1289;72529;-60
2023/08/09 04:47:47;;;;;;;6.70;2.30;;;;;;;10.52;100.00;99267.23;103046;1289;68503;-61
2023/08/09 04:50:33;;;;;;;7.20;2.40;;;;;;;10.56;100.00;99270.86;103108;1295;74100;-62
2023/08/09 04:53:20;;;;;;;8.00;2.70;;;;;;;10.64;100.00;99276.21;102884;1285;61077;-61
2023/08/09 04:56:07;;;;;;;11.30;2.60;;;;;;;10.69;100.00;99273.77;103270;1285;59564;-61
2023/08/09 04:58:54;;;;;;;6.70;2.10;;;;;;;10.75;100.00;99272.91;103221;1285;72699;-62
2023/08/09 05:01:41;;;;;;;8.60;2.50;;;;;;;10.82;100.00;99277.45;102914;1291;67085;-61
2023/08/09 05:04:27;;;;;;;7.00;2.60;;;;;;;10.90;100.00;99280.76;103075;1290;74083;-60
2023/08/09 05:07:14;;;;;;;10.30;2.70;;;;;;;11.01;100.00;99285.48;102978;1292;59884;-61
2023/08/09 05:10:03;;;;;;;6.80;2.30;;;;;;;11.12;100.00;99291.05;102957;1287;61128;-61
2023/08/09 05:12:49;;;;;;;7.60;2.40;;;;;;;11.25;100.00;99292.61;103116;1285;71754;-61
2023/08/09 05:15:36;;;;;;;7.80;2.70;;;;;;;11.39;100.00;99299.38;103333;1285;67442;-60
2023/08/09 05:18:24;;;;;;;9.70;3.00;;;;;;;11.60;100.00;99300.98;103261;1286;74314;-61
2023/08/09 05:21:10;;;;;;;8.40;2.30;;;;;;;11.89;100.00;99304.09;102912;1286;61100;-61
2023/08/09 05:23:57;;;;;;;12.30;2.60;;;;;;;12.31;99.68;99300.32;103137;1291;60970;-61
2023/08/09 05:26:46;;;;;;;10.10;2.40;;;;;;;12.96;96.67;99300.20;102883;1286;73551;-61
2023/08/09 05:29:32;;;;;;;7.60;2.30;;;;;;;14.13;91.65;99298.69;102928;1290;69356;-62
2023/08/09 05:32:21;;;;;;;9.60;2.60;;;;;;;15.20;85.63;99298.71;103171;1292;73462;-61
2023/08/09 05:35:08;;;;;;;7.60;2.30;;;;;;;16.09;78.44;99301.59;103242;1286;59407;-64
2023/08/09 05:37:56;;;;;;;5.70;1.60;;;;;;;16.55;76.47;99298.05;102985;1290;59458;-65
2023/08/09 05:40:43;;;;;;;9.00;2.30;;;;;;;16.90;74.32;99295.85;103186;1285;71300;-62
2023/08/09 05:43:29;;;;;;;7.20;1.80;;;;;;;17.15;72.04;99294.47;103332;1286;68481;-62
2023/08/09 05:46:16;;;;;;;9.10;2.10;;;;;;;17.66;69.55;99298.37;103151;1286;74417;-62
2023/08/09 05:49:03;;;;;;;10.30;1.80;;;;;;;18.24;67.96;99294.83;103117;1286;59432;-61
2023/08/09 05:51:51;;;;;;;7.90;1.90;;;;;;;18.68;66.10;99296.36;102717;1290;59467;-62
2023/08/09 05:54:38;;;;;;;6.60;1.70;;;;;;;19.47;61.68;99293.92;103363;1285;73656;-61
2023/08/09 05:57:25;;;;;;;6.30;1.70;;;;;;;20.18;58.83;99291.88;103489;1285;69602;-63
2023/08/09 06:00:15;;;;;;;7.10;1.80;;;;;;;20.81;55.66;99285.05;102931;1290;73104;-58
2023/08/09 06:03:02;;;;;;;9.30;2.10;;;;;;;21.62;54.57;99279.92;102943;1290;59430;-61
2023/08/09 06:05:49;;;;;;;8.60;1.80;;;;;;;22.43;51.38;99284.23;103210;1286;61907;-62
2023/08/09 06:08:36;;;;;;;8.00;1.80;;;;;;;23.01;48.99;99278.59;103148;1292;73196;-62
2023/08/09 06:11:22;;;;;;;7.00;1.60;;;;;;;23.06;47.19;99279.68;103355;1286;68484;-63
2023/08/09 06:14:08;;;;;;;8.60;1.60;;;;;;;23.68;46.68;99285.69;103188;1291;72162;-62
2023/08/09 06:16:56;;;;;;;7.90;1.70;;;;;;;23.86;44.82;99291.29;103229;1291;59295;-61
2023/08/09 06:19:43;;;;;;;7.60;1.50;;;;;;;23.80;44.47;99291.67;103491;1286;60685;-63
2023/08/09 06:22:30;;;;;;;19.30;1.90;;;;;;;23.60;44.10;99291.20;102712;1286;72943;-63
2023/08/09 06:25:19;;;;;;;7.60;1.30;;;;;;;23.47;44.83;99290.14;102900;1291;67368;-62
2023/08/09 06:28:05;;;;;;;6.60;1.50;;;;;;;23.34;44.85;99296.55;103120;1287;74525;-61
2023/08/09 06:30:52;;;;;;;9.30;1.90;;;;;;;23.84;44.41;99302.30;102979;1292;59461;-61
2023/08/09 06:33:42;;;;;;;9.00;2.00;;;;;;;23.95;42.34;99305.95;103181;1286;59456;-62
2023/08/09 06:36:29;;;;;;;12.00;2.30;;;;;;;24.32;41.98;99307.95;103154;1286;73685;-62
2023/08/09 06:39:16;;;;;;;8.70;1.60;;;;;;;24.43;41.30;99310.26;102836;1286;68469;-63
2023/08/09 06:42:02;;;;;;;11.60;2.40;;;;;;;24.32;41.08;99319.80;102913;1290;73551;-62
2023/08/09 06:44:53;;;;;;;7.80;1.40;;;;;;;24.45;40.91;99324.04;103123;1286;59617;-62
2023/08/09 06:47:40;;;;;;;7.70;1.70;;;;;;;24.09;41.16;99328.46;102940;1291;60707;-63
2023/08/09 06:50:27;;;;;;;7.10;1.60;;;;;;;24.70;41.21;99328.46;103218;1285;73021;-61
2023/08/09 06:53:14;;;;;;;7.50;1.60;;;;;;;25.00;39.28;99329.10;102956;1286;69395;-63
2023/08/09 06:56:01;;;;;;;7.90;1.60;;;;;;;25.40;39.35;99323.92;102879;1292;74061;-61
2023/08/09 06:58:47;;;;;;;6.80;1.50;;;;;;;25.79;38.09;99323.36;103088;1285;59432;-62
2023/08/09 07:01:34;;;;;;;6.50;1.50;;;;;;;25.36;37.98;99325.46;102880;1286;61088;-59
2023/08/09 07:04:20;;;;;;;7.80;1.50;;;;;;;25.20;38.66;99328.63;103302;1286;72960;-62
2023/08/09 07:07:07;;;;;;;9.10;1.60;;;;;;;24.85;38.80;99330.92;103213;1289;69500;-62
2023/08/09 07:09:55;;;;;;;9.90;1.80;;;;;;;24.51;39.76;99330.03;102630;1290;73243;-61
2023/08/09 07:12:42;;;;;;;9.60;1.80;;;;;;;24.58;40.48;99331.26;102907;1292;59632;-58
2023/08/09 07:15:28;;;;;;;11.70;1.60;;;;;;;24.63;39.41;99334.91;103183;1286;61963;-59
2023/08/09 07:18:15;;;;;;;9.30;1.40;;;;;;;25.02;39.00;99336.48;103169;1285;73772;-61
2023/08/09 07:21:02;;;;;;;7.00;1.40;;;;;;;25.54;38.61;99332.08;102927;1289;67867;-61
2023/08/09 07:23:48;;;;;;;9.50;1.30;;;;;;;26.02;37.42;99333.72;103038;1286;155490;-61
2023/08/09 07:26:43;;;;;;;7.20;1.50;;;;;;;26.20;36.37;99338.52;103175;1286;59446;-62
2023/08/09 07:29:30;;;;;;;7.80;1.90;;;;;;;26.20;36.42;99341.31;103098;1292;60646;-62
2023/08/09 07:32:17;;;;;;;7.70;1.50;;;;;;;26.42;35.81;99342.81;103173;1285;72873;-64
2023/08/09 07:35:09;;;;;;;6.50;1.40;;;;;;;26.69;35.16;99339.16;102912;1285;68547;-62
2023/08/09 07:37:55;;;;;;;7.20;1.40;;;;;;;26.94;34.41;99342.44;102979;1286;73420;-64
2023/08/09 07:40:42;;;;;;;8.10;1.60;;;;;;;27.31;33.57;99346.38;103043;1286;59435;-62
2023/08/09 07:43:29;;;;;;;7.00;1.30;;;;;;;27.46;33.31;99350.01;102986;1286;59936;-63
2023/08/09 07:46:16;;;;;;;8.40;1.40;;;;;;;27.95;32.22;99352.59;102888;1285;73766;-60
2023/08/09 07:49:03;;;;;;;6.40;1.60;;;;;;;27.16;32.95;99351.45;103142;1289;68636;-65
2023/08/09 07:51:49;;;;;;;10.20;1.60;;;;;;;27.29;32.75;99360.05;103179;1290;74246;-63
2023/08/09 07:54:36;;;;;;;8.20;1.50;;;;;;;27.67;32.47;99354.69;103129;1291;59417;-60
2023/08/09 07:57:22;;;;;;;8.20;1.50;;;;;;;27.72;32.63;99354.15;103128;1285;61938;-62
2023/08/09 08:00:17;;;;;;;6.40;1.70;;;;;;;28.20;32.65;99353.61;103100;1285;72696;-60
2023/08/09 08:03:03;;;;;;;6.20;1.20;;;;;;;28.96;31.40;99364.02;102830;1286;68518;-63
2023/08/09 08:05:51;;;;;;;5.70;1.10;;;;;;;28.79;30.28;99362.34;102870;1289;74355;-62
2023/08/09 08:08:37;;;;;;;6.30;1.00;;;;;;;28.00;31.34;99363.17;103121;1286;59324;-62
2023/08/09 08:11:24;;;;;;;6.10;1.10;;;;;;;27.45;32.17;99373.27;102978;1285;59436;-61
2023/08/09 08:14:11;;;;;;;7.90;1.10;;;;;;;26.73;33.04;99368.34;103129;1285;72659;-64
2023/08/09 08:17:00;;;;;;;8.00;1.40;;;;;;;27.08;32.56;99370.27;103053;1288;69435;-61
2023/08/09 08:19:47;;;;;;;8.70;1.30;;;;;;;27.41;32.26;99373.87;102954;1290;73110;-63
2023/08/09 08:22:33;;;;;;;5.70;1.20;;;;;;;27.57;31.64;99373.80;103047;1286;59371;-61
2023/08/09 08:25:20;;;;;;;6.30;1.20;;;;;;;27.95;30.70;99372.33;103287;1285;61967;-60
2023/08/09 08:28:07;;;;;;;6.00;1.30;;;;;;;28.28;29.84;99376.25;103122;1288;73607;-59
2023/08/09 08:30:55;;;;;;;8.00;1.10;;;;;;;28.12;29.79;99375.94;102974;1290;69492;-61
2023/08/09 08:33:45;;;;;;;7.80;1.40;;;;;;;27.84;30.43;99377.84;103378;1286;72449;-63
2023/08/09 08:36:32;;;;;;;7.30;1.40;;;;;;;27.46;30.75;99383.05;103110;1286;59330;-61
2023/08/09 08:39:19;;;;;;;7.70;1.30;;;;;;;27.33;30.68;99383.93;102984;1286;61652;-62
2023/08/09 08:42:07;;;;;;;10.50;1.60;;;;;;;26.83;30.99;99390.48;103122;1285;72569;-61
2023/08/09 08:44:55;;;;;;;6.90;1.40;;;;;;;26.49;31.62;99388.45;103131;1285;68939;-62
2023/08/09 08:47:45;;;;;;;7.30;1.30;;;;;;;26.24;32.16;99387.53;103110;1291;73199;-64
2023/08/09 08:50:32;;;;;;;7.90;1.70;;;;;;;26.12;32.17;99387.91;103307;1286;59719;-63
2023/08/09 08:53:20;;;;;;;8.60;1.30;;;;;;;26.67;32.02;99392.05;103001;1288;60766;-63
2023/08/09 08:56:07;;;;;;;7.10;1.20;;;;;;;26.40;31.99;99392.41;102982;1288;72741;-64
2023/08/09 08:58:53;;;;;;;7.20;1.50;;;;;;;26.35;31.45;99396.62;102976;1285;68562;-62
2023/08/09 09:01:41;;;;;;;6.70;1.40;;;;;;;26.76;31.27;99394.91;102880;1286;71965;-62
2023/08/09 09:04:29;;;;;;;7.10;1.20;;;;;;;26.87;30.81;99395.14;103248;1286;59417;-61
2023/08/09 09:07:15;;;;;;;7.60;1.30;;;;;;;26.56;30.81;99397.77;103104;1285;62759;-62
2023/08/09 09:10:05;;;;;;;6.70;1.50;;;;;;;27.19;30.58;99397.71;103144;1285;73845;-63
2023/08/09 09:12:53;;;;;;;6.70;1.40;;;;;;;26.88;29.54;99403.56;103102;1285;68604;-63
2023/08/09 09:15:39;;;;;;;5.30;1.40;;;;;;;26.03;30.42;99411.41;102868;1291;73083;-62
2023/08/09 09:18:26;;;;;;;6.20;1.20;;;;;;;25.83;31.22;99411.15;103249;1291;59301;-61
2023/08/09 09:21:16;;;;;;;8.50;1.50;;;;;;;26.20;30.43;99409.91;103052;1285;60820;-62
2023/08/09 09:24:09;;;;;;;6.30;1.40;;;;;;;26.72;30.07;99406.02;102909;1286;72631;-63
2023/08/09 09:26:55;;;;;;;5.80;1.20;;;;;;;26.98;29.79;99403.97;103120;1289;69574;-63
2023/08/09 09:29:42;;;;;;;8.60;1.30;;;;;;;26.25;30.46;99404.94;103083;1286;73159;-62
2023/08/09 09:32:28;;;;;;;6.50;1.40;;;;;;;26.62;30.38;99404.99;102837;1286;59420;-62
2023/08/09 09:35:25;;;;;;;9.80;1.30;;;;;;;26.60;30.35;99399.38;102985;1290;60884;-63
2023/08/09 09:38:12;;;;;;;9.90;1.20;;;;;;;25.99;31.53;99401.39;103267;1285;72599;-65
2023/08/09 09:41:00;;;;;;;7.40;1.40;;;;;;;26.80;30.53;99395.37;103089;1290;67062;-62
2023/08/09 09:43:50;;;;;;;6.10;1.30;;;;;;;26.81;29.76;99403.63;102938;1291;73010;-63
2023/08/09 09:46:41;;;;;;;8.90;1.40;;;;;;;26.41;30.30;99399.69;102703;1292;59529;-63
2023/08/09 09:49:34;;;;;;;6.60;1.30;;;;;;;26.37;30.07;99402.16;103193;1287;62479;-63
2023/08/09 09:52:22;;;;;;;6.20;1.20;;;;;;;27.08;29.05;99401.16;103320;1286;73723;-63
2023/08/09 09:55:10;;;;;;;7.20;1.20;;;;;;;27.66;28.10;99407.17;103172;1285;69517;-62
2023/08/09 09:57:58;;;;;;;6.50;1.20;;;;;;;28.06;27.72;99406.02;102892;1285;74062;-63
2023/08/09 10:00:52;;;;;;;7.50;1.40;;;;;;;28.60;27.53;99404.43;103447;1292;59289;-65
2023/08/09 10:03:42;;;;;;;6.00;1.30;;;;;;;29.02;26.61;99413.75;103053;1286;60264;-62
2023/08/09 10:06:44;;;;;;;5.50;0.90;;;;;;;28.55;26.22;99413.64;103181;1286;72862;-63
2023/08/09 10:09:31;;;;;;;8.40;1.40;;;;;;;28.42;26.41;99408.67;103131;1286;70166;-64
2023/08/09 10:12:20;;;;;;;9.70;1.40;;;;;;;27.72;27.64;99409.63;102717;1286;74428;-62
2023/08/09 10:15:11;;;;;;;9.90;1.20;;;;;;;26.82;29.07;99409.58;103353;1289;59353;-64
2023/08/09 10:18:05;;;;;;;6.80;1.80;;;;;;;26.22;30.13;99417.27;103202;1286;61788;-63
2023/08/09 10:20:55;;;;;;;7.90;1.10;;;;;;;26.78;29.18;99408.10;102966;1285;73924;-62
2023/08/09 10:24:18;;;;;;;10.90;1.60;;;;;;;26.21;29.74;99406.60;102896;1291;68298;-63
2023/08/09 10:27:06;;;;;;;7.60;1.80;;;;;;;25.24;30.96;99414.86;102707;1293;72271;-62
2023/08/09 10:29:57;;;;;;;;;;;;;;;25.46;30.78;99415.46;102550;1293;59609;-62
2023/08/09 10:32:52;;;;;;;5.30;1.10;;;;;;;26.11;29.64;99408.05;102533;1294;60815;-62
2023/08/09 10:36:05;;;;;;;7.30;1.40;;;;;;;26.75;28.05;99406.46;102380;1297;71710;-63
2023/08/09 10:38:53;;;;;;;7.60;1.30;;;;;;;27.38;27.37;99406.70;102271;1293;68635;-64
2023/08/09 10:42:07;;;;;;;8.30;1.20;;;;;;;26.55;27.91;99409.30;102231;1297;74168;-62
2023/08/09 10:45:03;;;;;;;6.90;1.40;;;;;;;26.40;28.39;99411.73;102485;1298;59554;-63
2023/08/09 10:47:50;;;;;;;5.00;1.10;;;;;;;26.70;28.69;99415.80;102585;1294;59579;-62
2023/08/09 10:50:36;;;;;;;7.00;1.30;;;;;;;26.51;28.45;99414.91;102407;1294;72849;-62
2023/08/09 10:53:58;;;;;;;6.80;1.50;;;;;;;27.31;28.35;99414.59;102368;1295;68334;-63
2023/08/09 10:56:47;;;;;;;6.30;1.10;;;;;;;27.39;28.03;99415.68;102179;1294;73421;-61
2023/08/09 10:59:34;;;;;;;5.90;1.00;;;;;;;26.79;28.64;99413.17;101913;1294;59415;-62
2023/08/09 11:02:20;;;;;;;7.10;1.60;;;;;;;25.43;29.88;99418.10;103105;1289;61783;-64
2023/08/09 11:05:08;;;;;;;7.00;1.50;;;;;;;24.34;31.50;99418.59;102953;1286;73966;-62
2023/08/09 11:07:59;;;;;;;9.80;1.40;;;;;;;24.42;32.24;99420.87;103120;1286;66241;-63
2023/08/09 11:10:48;;;;;;;5.90;1.30;;;;;;;24.31;31.85;99417.46;103123;1286;74046;-62
2023/08/09 11:13:35;;;;;;;5.80;1.40;;;;;;;25.24;30.93;99415.67;103273;1291;59396;-64
2023/08/09 11:16:27;;;;;;;6.50;1.40;;;;;;;26.79;29.26;99409.27;103002;1285;59922;-60
2023/08/09 11:19:21;;;;;;;6.20;1.20;;;;;;;27.62;27.87;99406.24;103130;1286;73711;-62
2023/08/09 11:22:22;;;;;;;5.30;1.20;;;;;;;26.38;28.58;99414.27;103068;1285;68160;-63
2023/08/09 11:25:08;;;;;;;6.60;1.20;;;;;;;26.56;29.05;99410.90;103082;1286;74284;-63
2023/08/09 11:27:58;;;;;;;5.10;1.10;;;;;;;27.16;29.31;99419.00;102669;1290;59567;-63
2023/08/09 11:30:51;;;;;;;6.10;1.10;;;;;;;27.43;28.36;99418.04;103025;1290;59992;-63
2023/08/09 11:33:38;;;;;;;6.10;1.10;;;;;;;27.55;28.10;99410.77;103016;1285;72307;-63
2023/08/09 11:36:32;;;;;;;5.80;1.10;;;;;;;26.84;27.96;99411.06;103329;1285;68389;-63
2023/08/09 11:39:21;;;;;;;4.70;1.00;;;;;;;26.43;29.12;99419.20;103160;1286;73189;-63
2023/08/09 11:42:08;;;;;;;5.60;1.10;;;;;;;26.35;28.50;99423.81;103194;1291;59544;-61
2023/08/09 11:44:55;;;;;;;6.10;1.30;;;;;;;25.68;29.30;99423.48;103204;1285;60874;-62
2023/08/09 11:47:50;;;;;;;6.40;1.10;;;;;;;25.50;30.59;99423.21;102860;1286;72754;-62
2023/08/09 11:50:36;;;;;;;6.70;1.30;;;;;;;25.33;30.48;99425.30;102775;1287;68478;-61
2023/08/09 11:53:23;;;;;;;5.40;1.40;;;;;;;25.03;30.75;99425.69;102921;1290;74372;-60
2023/08/09 11:56:23;;;;;;;4.50;1.20;;;;;;;24.65;31.15;99428.08;102994;1290;59416;-62
2023/08/09 11:59:11;;;;;;;5.50;1.20;;;;;;;23.60;31.63;99431.81;103056;1290;60808;-61
2023/08/09 12:01:59;;;;;;;4.90;1.00;;;;;;;22.87;33.31;99430.49;102995;1285;72197;-63
2023/08/09 12:04:46;;;;;;;5.10;1.20;;;;;;;22.19;35.28;99441.47;103167;1285;68594;-64
2023/08/09 12:07:34;;;;;;;6.30;1.30;;;;;;;21.61;36.57;99441.95;103103;1290;74963;-61
2023/08/09 12:10:21;;;;;;;5.40;1.30;;;;;;;21.22;37.81;99447.61;103091;1286;59449;-64
2023/08/09 12:13:09;;;;;;;5.60;1.20;;;;;;;21.09;39.03;99449.67;102862;1286;60735;-62
2023/08/09 12:15:56;;;;;;;8.00;1.40;;;;;;;21.19;39.84;99443.73;103291;1285;72959;-63
2023/08/09 12:18:43;;;;;;;5.90;1.30;;;;;;;21.36;39.50;99448.10;103253;1290;69701;-61
2023/08/09 12:21:30;;;;;;;5.40;1.30;;;;;;;21.35;38.51;99447.98;103125;1286;73029;-62
2023/08/09 12:24:16;;;;;;;4.50;1.00;;;;;;;20.99;38.44;99449.35;102872;1286;59414;-64
2023/08/09 12:27:04;;;;;;;6.40;1.20;;;;;;;20.85;38.63;99444.52;103135;1285;62411;-63
2023/08/09 12:29:51;;;;;;;6.00;1.30;;;;;;;20.82;38.58;99450.45;103161;1286;72899;-61
2023/08/09 12:32:38;;;;;;;5.40;1.30;;;;;;;20.96;39.06;99450.55;102990;1286;68596;-64
2023/08/09 12:35:25;;;;;;;7.20;1.20;;;;;;;21.16;38.90;99445.88;103182;1286;74343;-61
2023/08/09 12:38:12;;;;;;;6.50;1.40;;;;;;;21.03;38.90;99452.63;103520;1285;59363;-61
2023/08/09 12:40:59;;;;;;;5.20;1.20;;;;;;;20.93;39.40;99459.23;103285;1285;59491;-62
2023/08/09 12:43:46;;;;;;;5.60;1.40;;;;;;;20.83;39.10;99454.23;103153;1285;73823;-62
2023/08/09 12:46:35;;;;;;;4.40;1.10;;;;;;;20.82;38.85;99460.36;103389;1289;68136;-63
2023/08/09 12:49:22;;;;;;;5.30;1.00;;;;;;;20.73;39.11;99461.44;103256;1290;73009;-62
2023/08/09 12:52:10;;;;;;;5.50;1.20;;;;;;;20.62;39.35;99463.68;103156;1286;60448;-65
2023/08/09 12:54:57;;;;;;;6.60;1.20;;;;;;;20.47;40.26;99460.22;103280;1285;59621;-63
2023/08/09 12:57:44;;;;;;;7.80;1.30;;;;;;;20.43;40.25;99463.90;103033;1286;72647;-63
2023/08/09 13:00:34;;;;;;;6.40;1.10;;;;;;;20.34;40.20;99464.21;103116;1289;68475;-63
2023/08/09 13:03:21;;;;;;;6.80;1.30;;;;;;;20.25;40.13;99461.13;103331;1290;74311;-62